Time;durP1;ratioP1;P1;durP2;ratioP2;P2;SDS_P1;SDS_P2;PMS_P1;PMS_P2;Temp;Humidity;BMP_temperature;BMP_pressure;BME280_temperature;BME280_humidity;BME280_pressure;Samples;Min_cycle;Max_cycle;Signal;HPM_P1;HPM_P2
2022/09/29 00:00:49;;;;;;;0.63;0.63;;;6.30;99.90;;;;;;4995561;28;20136;-69
2022/09/29 00:03:16;;;;;;;0.40;0.40;;;6.40;99.90;;;;;;4999669;28;20579;-68
2022/09/29 00:05:52;;;;;;;0.75;0.75;;;6.40;99.90;;;;;;5002561;28;20633;-68
2022/09/29 00:08:20;;;;;;;0.32;0.32;;;6.30;99.90;;;;;;5015480;28;20051;-68
2022/09/29 00:10:47;;;;;;;2.17;0.70;;;6.40;99.90;;;;;;4993717;28;20048;-68
2022/09/29 00:13:15;;;;;;;1.08;0.32;;;6.40;99.90;;;;;;4994913;28;20386;-68
2022/09/29 00:15:42;;;;;;;0.50;0.50;;;6.40;99.90;;;;;;5000418;28;20053;-68
2022/09/29 00:18:10;;;;;;;0.80;0.50;;;6.40;99.90;;;;;;4993260;28;20048;-67
2022/09/29 00:20:41;;;;;;;0.47;0.47;;;6.40;99.90;;;;;;4988276;28;20344;-67
2022/09/29 00:23:08;;;;;;;0.52;0.52;;;6.40;99.90;;;;;;4998082;28;20047;-68
2022/09/29 00:25:34;;;;;;;1.95;0.40;;;6.40;99.90;;;;;;4997189;28;20033;-68
2022/09/29 00:28:01;;;;;;;0.40;0.35;;;6.40;99.90;;;;;;5006043;28;20139;-68
2022/09/29 00:30:28;;;;;;;0.40;0.40;;;6.50;99.90;;;;;;5006989;28;21102;-68
2022/09/29 00:32:56;;;;;;;0.57;0.57;;;6.50;99.90;;;;;;5006775;28;20547;-68
2022/09/29 00:35:22;;;;;;;0.60;0.50;;;6.50;99.90;;;;;;5007253;28;20214;-68
2022/09/29 00:37:49;;;;;;;;;;;6.50;99.90;;;;;;4999379;28;21041;-68
2022/09/29 00:40:16;;;;;;;1.13;0.30;;;6.50;99.90;;;;;;5006264;28;19931;-68
2022/09/29 00:42:44;;;;;;;1.42;0.80;;;6.50;99.90;;;;;;5004775;28;20040;-68
2022/09/29 00:45:17;;;;;;;0.50;0.50;;;6.50;99.90;;;;;;5003026;28;20046;-68
2022/09/29 00:47:50;;;;;;;0.98;0.65;;;6.50;99.90;;;;;;5002777;28;20045;-67
2022/09/29 00:50:34;;;;;;;3.85;0.50;;;6.50;99.90;;;;;;5005319;28;20219;-68
2022/09/29 00:53:03;;;;;;;0.65;0.57;;;6.50;99.90;;;;;;4993573;28;20040;-68
2022/09/29 00:55:35;;;;;;;1.80;0.85;;;6.50;99.90;;;;;;5000003;28;20135;-68
2022/09/29 00:58:06;;;;;;;0.50;0.50;;;6.40;99.90;;;;;;4997672;28;20052;-67
2022/09/29 01:00:33;;;;;;;3.88;1.00;;;6.40;99.90;;;;;;5002518;28;20059;-67
2022/09/29 01:03:06;;;;;;;0.98;0.60;;;6.40;99.90;;;;;;5007977;28;20036;-68
2022/09/29 01:05:37;;;;;;;1.05;0.70;;;6.40;99.90;;;;;;5009191;28;20036;-67
2022/09/29 01:08:36;;;;;;;1.00;0.50;;;6.40;99.90;;;;;;5011176;28;20108;-68
2022/09/29 01:11:04;;;;;;;1.00;0.60;;;6.40;99.90;;;;;;5003238;28;20810;-68
2022/09/29 01:13:33;;;;;;;0.55;0.50;;;6.40;99.90;;;;;;5007114;28;20770;-68
2022/09/29 01:16:00;;;;;;;0.50;0.50;;;6.40;99.90;;;;;;5014902;28;20635;-67
2022/09/29 01:18:27;;;;;;;2.85;0.90;;;6.30;99.90;;;;;;5012703;28;20901;-68
2022/09/29 01:20:58;;;;;;;4.22;0.57;;;6.30;99.90;;;;;;5002424;28;20036;-68
2022/09/29 01:23:40;;;;;;;0.75;0.50;;;6.30;99.90;;;;;;5005577;28;20037;-67
2022/09/29 01:26:26;;;;;;;2.22;0.50;;;6.30;99.90;;;;;;5007541;28;20053;-67
2022/09/29 01:29:15;;;;;;;0.50;0.50;;;6.30;99.90;;;;;;5002562;28;20115;-67
2022/09/29 01:31:58;;;;;;;0.60;0.60;;;6.30;99.90;;;;;;5004544;28;20040;-69
2022/09/29 01:34:45;;;;;;;0.50;0.50;;;6.30;99.90;;;;;;5002234;28;20107;-68
2022/09/29 01:37:20;;;;;;;0.95;0.50;;;6.30;99.90;;;;;;5004817;28;20043;-67
2022/09/29 01:40:08;;;;;;;0.65;0.60;;;6.30;99.90;;;;;;5005541;28;20951;-68
2022/09/29 01:42:43;;;;;;;1.70;0.80;;;6.30;99.90;;;;;;5004209;28;20032;-69
2022/09/29 01:45:39;;;;;;;3.20;0.70;;;6.30;99.90;;;;;;4998844;28;20134;-68
2022/09/29 01:48:10;;;;;;;3.25;0.70;;;6.30;99.90;;;;;;4996968;28;20044;-68
2022/09/29 01:50:46;;;;;;;2.58;0.70;;;6.30;99.90;;;;;;5002828;28;20040;-68
2022/09/29 01:53:19;;;;;;;0.52;0.52;;;6.30;99.90;;;;;;5002066;28;20194;-68
2022/09/29 01:55:51;;;;;;;1.00;0.60;;;6.20;99.90;;;;;;5003478;28;20067;-68
2022/09/29 01:58:24;;;;;;;0.80;0.57;;;6.20;99.90;;;;;;5009729;28;20800;-67
2022/09/29 02:00:57;;;;;;;0.63;0.60;;;6.20;99.90;;;;;;5009992;28;20052;-67
2022/09/29 02:03:27;;;;;;;5.05;0.85;;;6.20;99.90;;;;;;5007374;28;20051;-67
2022/09/29 02:05:57;;;;;;;3.50;0.82;;;6.20;99.90;;;;;;4998424;28;20489;-67
2022/09/29 02:08:33;;;;;;;0.80;0.70;;;6.20;99.90;;;;;;5006590;28;20578;-67
2022/09/29 02:11:11;;;;;;;1.52;0.80;;;6.20;99.90;;;;;;5006828;28;20044;-67
2022/09/29 02:13:40;;;;;;;0.77;0.77;;;6.20;99.90;;;;;;5003694;28;20036;-67
2022/09/29 02:16:14;;;;;;;1.73;1.17;;;6.30;99.90;;;;;;4993671;28;20061;-66
2022/09/29 02:19:04;;;;;;;0.68;0.68;;;6.30;99.90;;;;;;4992783;28;20213;-67
2022/09/29 02:21:31;;;;;;;2.22;0.88;;;6.30;99.90;;;;;;5001858;28;20151;-67
2022/09/29 02:23:59;;;;;;;0.82;0.80;;;6.30;99.90;;;;;;4999532;28;20103;-67
2022/09/29 02:26:32;;;;;;;2.08;0.90;;;6.20;99.90;;;;;;5001649;28;20040;-67
2022/09/29 02:29:01;;;;;;;1.35;1.15;;;6.30;99.90;;;;;;5004193;28;20351;-68
2022/09/29 02:31:30;;;;;;;1.63;1.05;;;6.30;99.90;;;;;;5007779;28;20596;-67
2022/09/29 02:33:59;;;;;;;4.95;0.88;;;6.30;99.90;;;;;;5007136;28;20036;-67
2022/09/29 02:37:03;;;;;;;0.80;0.80;;;6.30;99.90;;;;;;5002176;28;20549;-67
2022/09/29 02:39:30;;;;;;;0.73;0.68;;;6.30;99.90;;;;;;4998835;28;20787;-69
2022/09/29 02:42:05;;;;;;;3.28;0.82;;;6.40;99.90;;;;;;4999624;28;20045;-68
2022/09/29 02:45:02;;;;;;;2.38;0.98;;;6.30;99.90;;;;;;4999352;28;20040;-68
2022/09/29 02:48:04;;;;;;;1.00;0.93;;;6.30;99.90;;;;;;5005289;28;20036;-67
2022/09/29 02:50:46;;;;;;;1.25;0.90;;;6.40;99.90;;;;;;4978541;28;20056;-67
2022/09/29 02:53:26;;;;;;;0.90;0.80;;;6.40;99.90;;;;;;5008507;28;20080;-67
2022/09/29 02:56:08;;;;;;;1.13;0.80;;;6.40;99.90;;;;;;5006290;28;20045;-67
2022/09/29 02:58:45;;;;;;;1.23;0.85;;;6.40;99.90;;;;;;4996948;28;20041;-67
2022/09/29 03:01:15;;;;;;;1.13;0.80;;;6.40;99.90;;;;;;5002372;28;20151;-67
2022/09/29 03:03:43;;;;;;;1.85;0.80;;;6.40;99.90;;;;;;5004094;28;20061;-67
2022/09/29 03:06:12;;;;;;;2.50;1.35;;;6.40;99.90;;;;;;5001006;28;20040;-67
2022/09/29 03:08:39;;;;;;;0.80;0.80;;;6.50;99.90;;;;;;5005542;28;20047;-67
2022/09/29 03:11:05;;;;;;;1.08;1.05;;;6.50;99.90;;;;;;5005746;28;20130;-67
2022/09/29 03:13:33;;;;;;;2.10;1.02;;;6.50;99.90;;;;;;5004762;28;20040;-68
2022/09/29 03:16:00;;;;;;;0.82;0.73;;;6.50;99.90;;;;;;5007401;28;20037;-67
2022/09/29 03:18:27;;;;;;;1.13;0.85;;;6.60;99.90;;;;;;5003033;28;20048;-67
2022/09/29 03:20:54;;;;;;;1.55;0.88;;;6.60;99.90;;;;;;4999645;28;20244;-67
2022/09/29 03:23:21;;;;;;;1.13;0.82;;;6.60;99.90;;;;;;5002943;28;20049;-67
2022/09/29 03:25:48;;;;;;;0.60;0.60;;;6.60;99.90;;;;;;5004197;28;20043;-67
2022/09/29 03:28:15;;;;;;;;;;;6.60;99.90;;;;;;5000094;28;20210;-67
2022/09/29 03:30:44;;;;;;;1.63;0.60;;;6.70;99.90;;;;;;4998298;28;19921;-67
2022/09/29 03:33:11;;;;;;;0.70;0.70;;;6.60;99.90;;;;;;4996360;28;20172;-68
2022/09/29 03:35:38;;;;;;;2.22;1.48;;;6.70;99.90;;;;;;4997133;28;20073;-68
2022/09/29 03:38:10;;;;;;;0.90;0.90;;;6.70;99.90;;;;;;4997992;28;20114;-68
2022/09/29 03:40:37;;;;;;;1.05;1.00;;;6.70;99.90;;;;;;5001919;28;20206;-68
2022/09/29 03:43:04;;;;;;;0.90;0.85;;;6.70;99.90;;;;;;5002076;28;20122;-67
2022/09/29 03:45:31;;;;;;;1.10;0.90;;;6.70;99.90;;;;;;5008314;28;20580;-66
2022/09/29 03:47:58;;;;;;;1.58;1.08;;;6.70;99.90;;;;;;4999193;28;20041;-68
2022/09/29 03:50:25;;;;;;;1.30;1.20;;;6.80;99.90;;;;;;5036479;28;20090;-70
2022/09/29 03:52:51;;;;;;;;;;;6.80;99.90;;;;;;5057845;28;20049;-67
2022/09/29 03:55:18;;;;;;;1.20;1.10;;;6.80;99.90;;;;;;5050583;28;19924;-68
2022/09/29 03:57:45;;;;;;;4.43;1.20;;;6.80;99.90;;;;;;5060570;28;20054;-67
2022/09/29 04:00:12;;;;;;;;;;;6.80;99.90;;;;;;5062368;28;20040;-67
2022/09/29 04:02:38;;;;;;;3.50;1.75;;;6.80;99.90;;;;;;5058417;28;20179;-68
2022/09/29 04:05:06;;;;;;;1.52;1.40;;;6.80;99.90;;;;;;5062311;28;20040;-70
2022/09/29 04:07:32;;;;;;;1.65;1.45;;;6.80;99.90;;;;;;5068470;28;20075;-68
2022/09/29 04:09:59;;;;;;;2.05;1.20;;;6.90;99.90;;;;;;5064526;28;20050;-69
2022/09/29 04:12:25;;;;;;;1.55;1.45;;;6.90;99.90;;;;;;5060769;28;20046;-69
2022/09/29 04:14:52;;;;;;;1.63;1.50;;;6.90;99.90;;;;;;5064449;28;20058;-70
2022/09/29 04:17:19;;;;;;;;;;;6.90;99.90;;;;;;5068370;28;20071;-71
2022/09/29 04:19:46;;;;;;;2.25;1.00;;;6.90;99.90;;;;;;5067830;28;19925;-68
2022/09/29 04:22:17;;;;;;;;;;;6.90;99.90;;;;;;5060384;28;20083;-68
2022/09/29 04:24:46;;;;;;;5.72;1.25;;;6.80;99.90;;;;;;5060158;28;19983;-68
2022/09/29 04:27:14;;;;;;;1.45;0.75;;;6.80;99.90;;;;;;5063019;28;20048;-67
2022/09/29 04:29:41;;;;;;;0.90;0.73;;;6.80;99.90;;;;;;5058836;28;20087;-64
2022/09/29 04:32:07;;;;;;;;;;;6.80;99.90;;;;;;5060105;28;20043;-68
2022/09/29 04:34:34;;;;;;;9.90;1.23;;;6.80;99.90;;;;;;5057861;28;19929;-68
2022/09/29 04:37:01;;;;;;;1.05;0.95;;;6.70;99.90;;;;;;5064132;28;20041;-67
2022/09/29 04:39:28;;;;;;;1.40;0.90;;;6.70;99.90;;;;;;5047696;28;20041;-68
2022/09/29 04:41:55;;;;;;;4.22;0.70;;;6.60;99.90;;;;;;5010968;28;20044;-63
2022/09/29 04:44:23;;;;;;;;;;;6.50;99.90;;;;;;5010661;28;20123;-68
2022/09/29 04:46:50;;;;;;;2.55;0.90;;;6.50;99.90;;;;;;5007249;28;20286;-65
2022/09/29 04:49:18;;;;;;;2.55;0.85;;;6.50;99.90;;;;;;5005268;28;20047;-65
2022/09/29 04:51:45;;;;;;;1.88;1.02;;;6.50;99.90;;;;;;5005821;28;20148;-64
2022/09/29 04:54:13;;;;;;;1.83;1.05;;;6.50;99.90;;;;;;5006164;28;20044;-64
2022/09/29 04:56:40;;;;;;;0.70;0.70;;;6.50;99.90;;;;;;4991435;28;20044;-65
2022/09/29 04:59:08;;;;;;;2.75;0.90;;;6.40;99.90;;;;;;5006660;28;20040;-70
2022/09/29 05:01:35;;;;;;;0.80;0.80;;;6.40;99.90;;;;;;5010914;28;20142;-48
2022/09/29 05:04:03;;;;;;;2.58;0.77;;;6.40;99.90;;;;;;5000450;28;20307;-52
2022/09/29 05:06:30;;;;;;;0.77;0.75;;;6.40;99.90;;;;;;5004616;28;20130;-51
2022/09/29 05:08:57;;;;;;;1.10;1.00;;;6.40;99.90;;;;;;5005578;28;20068;-51
2022/09/29 05:11:24;;;;;;;1.63;0.60;;;6.40;99.90;;;;;;5007903;28;20044;-49
2022/09/29 05:13:51;;;;;;;1.58;0.75;;;6.50;99.90;;;;;;5009312;28;20041;-52
2022/09/29 05:16:18;;;;;;;2.85;0.85;;;6.50;99.90;;;;;;5004426;28;20856;-49
2022/09/29 05:18:46;;;;;;;1.42;0.90;;;6.40;99.90;;;;;;5009094;28;20040;-52
2022/09/29 05:21:12;;;;;;;0.55;0.55;;;6.50;99.90;;;;;;5011889;28;20339;-52
2022/09/29 05:23:56;;;;;;;1.60;1.38;;;6.50;99.90;;;;;;5012070;28;20041;-54
2022/09/29 05:26:23;;;;;;;1.42;1.00;;;6.50;99.90;;;;;;5001437;28;20052;-52
2022/09/29 05:28:50;;;;;;;0.70;0.70;;;6.50;99.90;;;;;;5001043;28;20836;-51
2022/09/29 05:31:17;;;;;;;4.93;1.40;;;6.50;99.90;;;;;;5012162;28;20046;-51
2022/09/29 05:33:45;;;;;;;5.95;1.63;;;6.50;99.90;;;;;;5012632;28;20140;-52
2022/09/29 05:36:12;;;;;;;5.13;1.30;;;6.60;99.90;;;;;;5006734;28;20141;-51
2022/09/29 05:38:39;;;;;;;4.82;1.75;;;6.60;99.90;;;;;;5004218;28;20037;-52
2022/09/29 05:41:09;;;;;;;9.77;1.90;;;6.60;99.90;;;;;;5000378;28;20043;-54
2022/09/29 05:43:37;;;;;;;4.13;1.80;;;6.60;99.90;;;;;;4996774;28;20041;-53
2022/09/29 05:46:06;;;;;;;5.10;2.53;;;6.60;99.90;;;;;;4999136;28;20040;-53
2022/09/29 05:48:33;;;;;;;5.80;2.80;;;6.60;99.90;;;;;;5002983;28;20049;-54
2022/09/29 05:51:10;;;;;;;5.40;3.00;;;6.60;99.90;;;;;;5005728;28;20197;-54
2022/09/29 05:53:38;;;;;;;4.53;3.95;;;6.60;99.90;;;;;;5000839;28;20045;-53
2022/09/29 05:56:13;;;;;;;4.38;2.95;;;6.60;99.90;;;;;;4996096;28;20045;-53
2022/09/29 05:58:41;;;;;;;4.90;3.53;;;6.60;99.90;;;;;;4999649;28;20048;-54
2022/09/29 06:01:11;;;;;;;5.53;3.33;;;6.60;99.90;;;;;;5009670;28;20056;-53
2022/09/29 06:03:38;;;;;;;3.45;2.30;;;6.60;99.90;;;;;;5004811;28;20214;-51
2022/09/29 06:06:10;;;;;;;4.88;3.28;;;6.60;99.90;;;;;;5007535;28;20808;-51
2022/09/29 06:08:38;;;;;;;5.65;3.40;;;6.70;99.90;;;;;;5011180;28;20040;-52
2022/09/29 06:11:10;;;;;;;8.35;3.60;;;6.70;99.90;;;;;;5002550;28;20282;-52
2022/09/29 06:13:41;;;;;;;4.90;2.75;;;6.70;99.90;;;;;;5003919;28;20347;-52
2022/09/29 06:16:09;;;;;;;4.05;3.42;;;6.70;99.90;;;;;;5005351;28;20795;-52
2022/09/29 06:18:36;;;;;;;4.47;2.97;;;6.80;99.90;;;;;;5000032;28;20041;-52
2022/09/29 06:21:06;;;;;;;4.20;3.20;;;6.80;99.90;;;;;;5007005;28;20047;-54
2022/09/29 06:23:34;;;;;;;7.13;3.00;;;6.80;99.90;;;;;;5004296;28;20059;-53
2022/09/29 06:26:03;;;;;;;4.43;2.97;;;6.90;99.90;;;;;;5006170;28;20046;-52
2022/09/29 06:28:31;;;;;;;4.75;3.13;;;6.90;99.90;;;;;;5010192;28;20041;-53
2022/09/29 06:31:04;;;;;;;6.32;2.85;;;6.90;99.90;;;;;;5004098;28;20569;-52
2022/09/29 06:33:33;;;;;;;6.93;4.07;;;7.00;99.90;;;;;;5018134;28;20048;-53
2022/09/29 06:38:49;;;;;;;3.15;2.33;;;7.00;99.90;;;;;;5001859;28;20033;-53
2022/09/29 06:41:18;;;;;;;3.67;2.63;;;7.00;99.90;;;;;;5005494;28;20055;-53
2022/09/29 06:43:45;;;;;;;2.97;2.65;;;7.00;99.90;;;;;;5008245;28;20594;-53
2022/09/29 06:46:12;;;;;;;3.88;3.13;;;7.00;99.90;;;;;;5005680;28;20041;-54
2022/09/29 06:48:39;;;;;;;4.38;3.70;;;7.10;99.90;;;;;;5002249;28;20216;-54
2022/09/29 06:51:07;;;;;;;8.32;5.07;;;7.10;99.90;;;;;;4979904;28;20103;-54
2022/09/29 06:53:36;;;;;;;6.75;4.82;;;7.10;99.90;;;;;;4974042;28;20046;-54
2022/09/29 06:56:07;;;;;;;6.10;4.45;;;7.10;99.90;;;;;;4975530;28;20260;-54
2022/09/29 06:58:34;;;;;;;4.80;3.65;;;7.10;99.90;;;;;;4973134;28;20769;-54
2022/09/29 07:01:04;;;;;;;4.53;3.72;;;7.10;99.90;;;;;;4974613;28;20141;-60
2022/09/29 07:59:57;;;;;;;8.27;6.35;;;7.60;99.90;;;;;;5055496;28;20119;-54
2022/09/29 08:02:24;;;;;;;12.05;8.00;;;7.70;99.90;;;;;;5050277;28;20521;-54
2022/09/29 08:04:51;;;;;;;8.65;7.25;;;7.70;99.90;;;;;;5050409;28;20102;-54
2022/09/29 08:07:25;;;;;;;13.25;9.13;;;7.80;99.90;;;;;;5050217;28;20052;-48
2022/09/29 08:09:52;;;;;;;10.18;7.82;;;7.80;99.90;;;;;;5050941;28;20055;-54
2022/09/29 08:12:19;;;;;;;8.18;6.80;;;7.90;99.90;;;;;;5048197;28;20048;-51
2022/09/29 08:14:47;;;;;;;;;;;7.90;99.90;;;;;;5052168;28;20059;-51
2022/09/29 08:17:14;;;;;;;18.27;7.78;;;7.90;99.90;;;;;;5051868;28;20011;-51
2022/09/29 08:19:41;;;;;;;13.93;8.32;;;8.00;99.90;;;;;;5049662;28;20475;-53
2022/09/29 08:22:08;;;;;;;10.90;7.60;;;7.90;99.90;;;;;;5049572;28;20642;-52
2022/09/29 08:24:39;;;;;;;10.45;8.18;;;8.00;99.90;;;;;;5049655;28;20043;-52
2022/09/29 08:27:06;;;;;;;11.25;7.63;;;8.00;99.90;;;;;;5050483;28;20037;-50
2022/09/29 08:29:44;;;;;;;11.93;7.10;;;8.00;99.90;;;;;;5051688;28;20054;-52
2022/09/29 08:32:13;;;;;;;10.02;7.68;;;8.00;99.90;;;;;;5052207;28;20050;-50
2022/09/29 08:34:40;;;;;;;11.15;7.35;;;8.00;99.90;;;;;;5048272;28;20071;-51
2022/09/29 08:37:08;;;;;;;7.53;6.00;;;8.00;99.90;;;;;;5051413;28;20506;-51
2022/09/29 08:39:36;;;;;;;11.35;6.55;;;8.00;99.90;;;;;;5050712;28;20047;-49
2022/09/29 08:42:25;;;;;;;8.25;6.57;;;8.10;99.90;;;;;;5049748;28;20043;-55
2022/09/29 08:45:00;;;;;;;6.38;5.65;;;8.10;99.90;;;;;;5029196;28;20069;-51
2022/09/29 08:47:47;;;;;;;5.57;5.05;;;8.10;99.90;;;;;;5050394;28;20044;-56
2022/09/29 08:50:30;;;;;;;5.82;4.20;;;8.10;99.90;;;;;;5049412;28;20272;-52
2022/09/29 08:53:06;;;;;;;8.23;5.38;;;8.10;99.90;;;;;;5050340;28;20037;-50
2022/09/29 08:56:05;;;;;;;5.88;4.63;;;8.10;99.90;;;;;;5049153;28;20048;-52
2022/09/29 08:58:33;;;;;;;7.75;4.65;;;8.10;99.90;;;;;;5051563;28;20094;-53
2022/09/29 09:01:18;;;;;;;6.22;5.13;;;8.20;99.90;;;;;;5049460;28;20047;-51
2022/09/29 09:04:10;;;;;;;6.57;4.63;;;8.20;99.90;;;;;;5050236;28;20048;-53
2022/09/29 09:07:09;;;;;;;2.78;2.50;;;8.20;99.90;;;;;;5049366;28;20585;-54
2022/09/29 09:10:16;;;;;;;3.40;3.00;;;8.20;99.90;;;;;;5044416;28;20116;-51
2022/09/29 09:13:01;;;;;;;3.13;2.00;;;8.10;99.90;;;;;;5006105;28;20061;-53
2022/09/29 09:15:38;;;;;;;2.80;2.30;;;8.10;99.90;;;;;;5034204;28;20049;-53
2022/09/29 09:18:21;;;;;;;5.25;2.70;;;8.10;99.90;;;;;;5036449;28;20048;-52
2022/09/29 09:21:08;;;;;;;3.92;2.20;;;8.10;99.90;;;;;;5036159;28;20041;-51
2022/09/29 09:23:56;;;;;;;5.07;2.55;;;8.10;99.90;;;;;;5038680;28;20817;-53
2022/09/29 09:26:41;;;;;;;4.05;3.20;;;8.10;99.90;;;;;;5048319;28;20509;-53
2022/09/29 09:29:21;;;;;;;2.80;2.60;;;8.10;99.90;;;;;;5038030;28;20418;-53
2022/09/29 09:31:56;;;;;;;2.72;2.38;;;8.00;99.90;;;;;;5033460;28;20095;-50
2022/09/29 09:34:39;;;;;;;4.60;2.85;;;8.10;99.90;;;;;;5032431;28;20060;-51
2022/09/29 09:37:16;;;;;;;3.80;2.90;;;8.10;99.90;;;;;;5035564;28;20044;-51
2022/09/29 09:39:48;;;;;;;2.67;2.25;;;8.10;99.90;;;;;;5035432;28;20103;-57
2022/09/29 09:42:23;;;;;;;4.32;2.65;;;8.10;99.90;;;;;;5033956;28;20079;-52
2022/09/29 09:44:58;;;;;;;4.53;2.72;;;8.10;99.90;;;;;;5031326;28;20122;-50
2022/09/29 09:47:37;;;;;;;3.58;2.08;;;8.10;99.90;;;;;;5023556;28;20037;-51
2022/09/29 09:50:14;;;;;;;2.63;2.35;;;8.10;99.90;;;;;;5017689;28;20111;-52
2022/09/29 09:52:50;;;;;;;2.00;1.90;;;8.20;99.90;;;;;;5033480;28;20076;-52
2022/09/29 09:55:23;;;;;;;5.05;2.08;;;8.20;99.90;;;;;;5034304;28;20043;-53
2022/09/29 09:58:05;;;;;;;3.60;1.90;;;8.20;99.90;;;;;;5038815;28;20041;-51
2022/09/29 10:00:43;;;;;;;1.83;1.73;;;8.20;99.90;;;;;;5035113;28;20044;-53
2022/09/29 10:03:13;;;;;;;1.85;1.75;;;8.20;99.90;;;;;;5035405;28;20566;-51
2022/09/29 10:05:48;;;;;;;3.75;2.30;;;8.20;99.90;;;;;;5033443;28;20057;-55
2022/09/29 10:08:29;;;;;;;1.75;1.65;;;8.30;99.90;;;;;;5033996;28;20409;-53
2022/09/29 10:10:57;;;;;;;2.33;1.90;;;8.30;99.90;;;;;;5037296;28;20049;-53
2022/09/29 10:13:29;;;;;;;4.70;1.60;;;8.30;99.90;;;;;;5033015;28;20333;-54
2022/09/29 10:16:04;;;;;;;1.77;1.67;;;8.40;99.90;;;;;;5037269;28;20512;-52
2022/09/29 10:18:45;;;;;;;1.40;1.30;;;8.40;99.90;;;;;;5036339;28;20040;-52
2022/09/29 10:21:28;;;;;;;2.85;1.60;;;8.50;99.90;;;;;;5030102;28;20052;-55
2022/09/29 10:23:57;;;;;;;3.58;1.58;;;8.50;99.90;;;;;;5034082;28;20082;-51
2022/09/29 10:26:27;;;;;;;7.32;1.52;;;8.60;99.90;;;;;;5032381;28;20040;-54
2022/09/29 10:28:59;;;;;;;2.45;1.80;;;8.60;99.90;;;;;;5031326;28;20626;-51
2022/09/29 10:31:35;;;;;;;1.63;1.25;;;8.70;99.90;;;;;;5028459;28;20879;-53
2022/09/29 10:34:23;;;;;;;1.95;1.27;;;8.80;99.90;;;;;;5032480;28;20056;-51
2022/09/29 10:36:57;;;;;;;1.40;1.30;;;8.80;99.90;;;;;;5033054;28;20467;-53
2022/09/29 10:39:36;;;;;;;1.55;1.45;;;8.90;99.90;;;;;;5034085;28;20072;-52
2022/09/29 10:42:13;;;;;;;2.28;1.50;;;8.90;99.90;;;;;;5032930;28;20131;-51
2022/09/29 10:44:40;;;;;;;1.65;1.55;;;8.90;99.90;;;;;;5032306;28;20052;-51
2022/09/29 10:47:13;;;;;;;;;;;9.00;99.90;;;;;;5035287;28;20072;-54
2022/09/29 10:49:40;;;;;;;1.67;1.40;;;8.90;99.90;;;;;;5031242;28;20464;-51
2022/09/29 10:52:33;;;;;;;;;;;9.00;99.90;;;;;;5039093;28;20049;-52
2022/09/29 10:55:04;;;;;;;2.70;1.40;;;9.00;99.90;;;;;;5026553;28;19933;-54
2022/09/29 10:57:33;;;;;;;1.73;1.63;;;9.10;99.90;;;;;;5035594;28;20829;-52
2022/09/29 11:00:01;;;;;;;1.77;1.65;;;9.10;99.90;;;;;;5036154;28;20054;-52
2022/09/29 11:02:34;;;;;;;1.77;1.38;;;9.10;99.90;;;;;;5036131;28;20427;-52
2022/09/29 11:05:23;;;;;;;1.02;1.02;;;9.10;99.90;;;;;;5037270;28;20044;-56
2022/09/29 11:07:52;;;;;;;4.15;1.77;;;9.10;99.90;;;;;;5035835;28;20063;-49
2022/09/29 11:10:35;;;;;;;1.45;1.35;;;9.10;99.90;;;;;;5034505;28;20049;-52
2022/09/29 11:13:23;;;;;;;1.95;1.50;;;9.20;99.90;;;;;;5035872;28;20143;-49
2022/09/29 11:15:50;;;;;;;1.23;1.20;;;9.20;99.90;;;;;;5034595;28;20067;-53
2022/09/29 11:18:38;;;;;;;1.88;1.58;;;9.20;99.90;;;;;;5033482;28;20138;-53
2022/09/29 11:21:20;;;;;;;1.33;1.27;;;9.20;99.90;;;;;;5031437;28;20126;-52
2022/09/29 11:24:06;;;;;;;1.38;1.27;;;9.20;99.90;;;;;;5035332;28;20048;-53
2022/09/29 11:26:54;;;;;;;1.98;1.83;;;9.20;99.90;;;;;;5034734;28;20484;-50
2022/09/29 11:29:35;;;;;;;4.28;1.92;;;9.10;99.90;;;;;;5035985;28;20045;-50
2022/09/29 11:32:08;;;;;;;2.53;1.73;;;9.20;99.90;;;;;;5034758;28;20044;-53
2022/09/29 11:35:04;;;;;;;1.70;1.60;;;9.20;99.90;;;;;;5032573;28;20129;-51
2022/09/29 11:37:43;;;;;;;3.00;1.77;;;9.20;99.90;;;;;;5040889;28;20060;-52
2022/09/29 11:40:28;;;;;;;2.50;1.90;;;9.20;99.90;;;;;;5034780;28;20128;-54
2022/09/29 11:43:00;;;;;;;2.03;1.92;;;9.30;99.90;;;;;;5033599;28;20041;-52
2022/09/29 11:45:42;;;;;;;2.33;1.90;;;9.30;99.90;;;;;;5020579;28;20144;-53
2022/09/29 11:48:08;;;;;;;2.90;2.05;;;9.30;99.90;;;;;;5035243;28;21084;-60
2022/09/29 11:50:44;;;;;;;1.55;1.45;;;9.30;99.90;;;;;;5032904;28;20062;-54
2022/09/29 11:53:25;;;;;;;1.67;1.55;;;9.30;99.90;;;;;;5035970;28;20102;-53
2022/09/29 11:56:30;;;;;;;1.95;1.77;;;9.30;99.90;;;;;;5030543;28;20580;-52
2022/09/29 11:59:09;;;;;;;1.83;1.38;;;9.30;99.90;;;;;;5024912;28;20147;-55
2022/09/29 12:01:48;;;;;;;3.05;1.60;;;9.30;99.90;;;;;;5033607;28;20124;-52
2022/09/29 12:04:39;;;;;;;1.83;1.67;;;9.30;99.90;;;;;;5035868;28;20051;-52
2022/09/29 12:07:47;;;;;;;1.55;1.45;;;9.30;99.90;;;;;;5034616;28;20072;-52
2022/09/29 12:10:43;;;;;;;2.45;2.05;;;9.30;99.90;;;;;;5033206;28;20041;-51
2022/09/29 12:13:30;;;;;;;1.27;1.17;;;9.30;99.90;;;;;;5034925;28;20048;-52
2022/09/29 12:16:03;;;;;;;1.83;1.65;;;9.30;99.90;;;;;;5031962;28;20044;-52
2022/09/29 12:19:03;;;;;;;1.20;1.10;;;9.30;99.90;;;;;;5032629;28;20080;-54
2022/09/29 12:21:49;;;;;;;1.23;1.13;;;9.30;99.90;;;;;;5022042;28;20036;-51
2022/09/29 12:24:27;;;;;;;2.03;1.30;;;9.30;99.90;;;;;;5034041;28;20041;-57
2022/09/29 12:26:55;;;;;;;2.40;1.60;;;9.30;99.90;;;;;;5032412;28;20425;-50
2022/09/29 12:29:38;;;;;;;1.30;1.20;;;9.30;99.90;;;;;;5034029;28;20084;-51
2022/09/29 12:32:22;;;;;;;3.20;1.80;;;9.40;99.90;;;;;;5031882;28;20131;-56
2022/09/29 12:34:58;;;;;;;1.63;1.52;;;9.40;99.90;;;;;;5032402;28;20617;-52
2022/09/29 12:37:38;;;;;;;1.60;1.50;;;9.50;99.90;;;;;;5034337;28;20096;-51
2022/09/29 12:41:09;;;;;;;1.70;1.27;;;9.50;99.90;;;;;;5032208;28;20045;-52
2022/09/29 12:44:02;;;;;;;1.63;1.52;;;9.50;99.90;;;;;;4966899;28;20129;-54
2022/09/29 12:46:46;;;;;;;1.23;1.15;;;9.60;99.90;;;;;;5029755;28;20148;-51
2022/09/29 12:49:18;;;;;;;1.25;1.10;;;9.60;99.90;;;;;;5033559;28;20167;-53
2022/09/29 12:51:49;;;;;;;2.25;1.08;;;9.70;99.90;;;;;;5030583;28;20580;-54
2022/09/29 12:54:27;;;;;;;1.30;1.08;;;9.70;99.90;;;;;;5035235;28;20049;-50
2022/09/29 12:57:18;;;;;;;1.45;0.90;;;9.70;99.90;;;;;;5036906;28;20317;-56
2022/09/29 13:00:09;;;;;;;1.45;0.80;;;9.70;99.90;;;;;;5036816;28;20037;-60
2022/09/29 13:02:39;;;;;;;2.53;0.90;;;9.70;99.90;;;;;;5037069;28;20115;-54
2022/09/29 13:05:31;;;;;;;0.95;0.73;;;9.70;99.90;;;;;;5034680;28;20041;-51
2022/09/29 13:08:26;;;;;;;1.02;0.98;;;9.70;99.90;;;;;;4962367;28;20157;-49
2022/09/29 13:11:06;;;;;;;0.88;0.88;;;9.60;99.90;;;;;;4998563;28;20385;-58
2022/09/29 13:14:16;;;;;;;1.48;1.25;;;9.60;99.90;;;;;;4988629;28;20045;-54
2022/09/29 13:16:55;;;;;;;1.58;0.98;;;9.60;99.90;;;;;;4989142;28;20084;-59
2022/09/29 13:19:53;;;;;;;0.80;0.80;;;9.60;99.90;;;;;;4984995;28;20582;-55
2022/09/29 13:22:52;;;;;;;1.13;1.10;;;9.60;99.90;;;;;;5003689;28;20760;-57
2022/09/29 13:25:46;;;;;;;0.82;0.73;;;9.60;99.90;;;;;;5015338;28;20040;-58
2022/09/29 13:28:27;;;;;;;1.20;0.80;;;9.70;99.90;;;;;;5010018;28;20508;-57
2022/09/29 13:30:58;;;;;;;0.95;0.95;;;9.70;99.90;;;;;;5005637;28;20161;-57
2022/09/29 13:33:26;;;;;;;3.92;1.20;;;9.80;99.90;;;;;;5007212;28;20053;-57
2022/09/29 13:35:53;;;;;;;1.40;1.10;;;9.80;99.90;;;;;;5010003;28;20878;-51
2022/09/29 13:38:27;;;;;;;2.08;1.08;;;9.80;99.90;;;;;;5016926;28;20676;-57
2022/09/29 13:41:11;;;;;;;1.20;0.90;;;9.80;99.90;;;;;;5012319;28;20126;-53
2022/09/29 13:43:39;;;;;;;2.72;1.02;;;9.90;99.90;;;;;;5014429;28;20049;-57
2022/09/29 13:46:32;;;;;;;1.05;0.93;;;9.90;99.90;;;;;;5016470;28;20865;-50
2022/09/29 13:49:13;;;;;;;2.70;0.95;;;10.00;99.90;;;;;;5015266;28;20051;-56
2022/09/29 13:51:54;;;;;;;0.82;0.68;;;10.00;99.90;;;;;;5013720;28;20539;-52
2022/09/29 13:54:26;;;;;;;1.38;1.05;;;10.10;99.90;;;;;;5013808;28;20124;-51
2022/09/29 13:56:58;;;;;;;0.90;0.90;;;10.20;99.90;;;;;;5014796;28;20622;-52
2022/09/29 13:59:27;;;;;;;1.65;1.02;;;10.20;99.90;;;;;;5012593;28;20185;-51
2022/09/29 14:01:55;;;;;;;1.30;1.20;;;10.20;99.90;;;;;;4999089;28;20072;-53
2022/09/29 14:04:43;;;;;;;3.00;0.95;;;10.20;99.90;;;;;;5016199;28;20057;-51
2022/09/29 14:07:13;;;;;;;2.05;1.23;;;10.20;99.90;;;;;;5015557;28;20126;-53
2022/09/29 14:09:45;;;;;;;1.67;0.95;;;10.20;99.90;;;;;;5014153;28;20050;-54
2022/09/29 14:12:22;;;;;;;3.60;1.20;;;10.20;99.90;;;;;;5014469;28;20530;-53
2022/09/29 14:14:58;;;;;;;2.92;0.77;;;10.20;99.90;;;;;;5015839;28;20446;-54
2022/09/29 14:17:35;;;;;;;1.05;0.85;;;10.20;99.90;;;;;;5013591;28;20045;-53
2022/09/29 14:20:14;;;;;;;0.90;0.90;;;10.20;99.90;;;;;;5014102;28;20136;-52
2022/09/29 14:22:55;;;;;;;1.45;1.35;;;10.20;99.90;;;;;;5013052;28;20578;-54
2022/09/29 14:25:40;;;;;;;0.80;0.80;;;10.20;99.90;;;;;;5018973;28;20052;-50
2022/09/29 14:28:26;;;;;;;4.57;1.20;;;10.20;99.90;;;;;;5015267;28;20045;-52
2022/09/29 14:30:56;;;;;;;3.25;1.13;;;10.20;99.90;;;;;;5012897;28;20124;-50
2022/09/29 14:33:29;;;;;;;0.90;0.90;;;10.20;99.90;;;;;;5015040;28;20049;-49
2022/09/29 14:35:59;;;;;;;0.73;0.73;;;10.20;99.90;;;;;;5012973;28;20046;-52